Terminal Aerodrome Forecast
Issued by NWS Sterling, VA

Home | Current Version | Previous Version | Text Only | Print | Product List | Glossary On
Versions: 1 2 3 4 5 6 7 8 9 10 11 12 13 14 15 16 17
140
FTUS41 KLWX 191138
TAFCHO
TAF
KCHO 191138Z 1912/2012 36005KT P6SM SCT015
     FM191500 36008KT P6SM FEW050
     FM200700 00000KT 2SM BR SCT200=

USA.gov is the U.S. government's official web portal to all federal, state and local government web resources and services.